Time,TemperatureF,DewpointF,PressureIn,WindDirection,WindDirectionDegrees,WindSpeedMPH,WindSpeedGustMPH,Humidity,HourlyPrecipIn,Conditions,Clouds,dailyrainin,SoftwareType,DateUTC
2013-06-25 00:00:00,71.8,63.4,30.18,SW,236,0.0,0.0,75,0.00,,,0.00,Wunderground v.1.15,2013-06-25 04:00:00,
2013-06-25 00:05:00,71.6,63.3,30.18,SW,236,0.0,1.0,75,0.00,,,0.00,Wunderground v.1.15,2013-06-25 04:05:00,
2013-06-25 00:10:00,71.6,63.6,30.18,SW,236,0.0,3.0,76,0.00,,,0.00,Wunderground v.1.15,2013-06-25 04:10:00,
2013-06-25 00:15:00,71.6,63.6,30.18,SSE,148,2.0,6.0,76,0.00,,,0.00,Wunderground v.1.15,2013-06-25 04:15:00,
2013-06-25 00:25:00,71.3,63.7,30.18,SSE,148,2.0,5.0,77,0.00,,,0.00,Wunderground v.1.15,2013-06-25 04:25:00,
2013-06-25 00:30:00,70.8,63.6,30.18,SSE,148,2.0,2.0,78,0.00,,,0.00,Wunderground v.1.15,2013-06-25 04:30:00,
2013-06-25 00:35:00,70.5,63.7,30.18,SSE,148,1.0,2.0,79,0.00,,,0.00,Wunderground v.1.15,2013-06-25 04:35:00,
2013-06-25 00:40:00,70.2,63.7,30.18,SSE,148,1.0,1.0,80,0.00,,,0.00,Wunderground v.1.15,2013-06-25 04:40:00,
2013-06-25 00:45:00,69.8,63.3,30.18,SSE,148,1.0,4.0,80,0.00,,,0.00,Wunderground v.1.15,2013-06-25 04:45:00,
2013-06-25 00:55:00,69.3,63.2,30.17,SSE,148,3.0,3.0,81,0.00,,,0.00,Wunderground v.1.15,2013-06-25 04:55:00,
2013-06-25 01:00:00,69.0,63.3,30.17,SSE,148,2.0,2.0,82,0.00,,,0.00,Wunderground v.1.15,2013-06-25 05:00:00,
2013-06-25 01:05:00,68.6,63.2,30.17,SSE,148,2.0,4.0,83,0.00,,,0.00,Wunderground v.1.15,2013-06-25 05:05:00,
2013-06-25 01:10:00,68.3,63.3,30.18,South,189,3.0,3.0,84,0.00,,,0.00,Wunderground v.1.15,2013-06-25 05:10:00,
2013-06-25 01:15:00,68.3,63.3,30.18,South,189,3.0,3.0,84,0.00,,,0.00,Wunderground v.1.15,2013-06-25 05:15:00,
2013-06-25 01:20:00,68.3,63.3,30.17,South,189,3.0,3.0,84,0.00,,,0.00,Wunderground v.1.15,2013-06-25 05:20:00,
2013-06-25 01:25:00,68.2,63.2,30.17,South,189,2.0,3.0,84,0.00,,,0.00,Wunderground v.1.15,2013-06-25 05:25:00,
2013-06-25 01:30:00,68.0,63.0,30.17,South,189,2.0,4.0,84,0.00,,,0.00,Wunderground v.1.15,2013-06-25 05:30:00,
2013-06-25 01:35:00,68.0,63.3,30.17,South,189,3.0,4.0,85,0.00,,,0.00,Wunderground v.1.15,2013-06-25 05:35:00,
2013-06-25 01:40:00,68.1,63.4,30.17,South,189,3.0,4.0,85,0.00,,,0.00,Wunderground v.1.15,2013-06-25 05:40:00,
2013-06-25 01:45:00,68.4,63.4,30.17,South,190,4.0,4.0,84,0.00,,,0.00,Wunderground v.1.15,2013-06-25 05:45:00,
2013-06-25 01:50:00,68.6,63.6,30.17,SSW,195,4.0,4.0,84,0.00,,,0.00,Wunderground v.1.15,2013-06-25 05:50:00,
2013-06-25 02:00:00,68.6,63.6,30.17,SSW,194,4.0,5.0,84,0.00,,,0.00,Wunderground v.1.15,2013-06-25 06:00:00,
2013-06-25 02:05:00,68.7,63.7,30.17,SSW,195,4.0,5.0,84,0.00,,,0.00,Wunderground v.1.15,2013-06-25 06:05:00,
2013-06-25 02:10:00,68.7,63.7,30.17,SSW,195,4.0,4.0,84,0.00,,,0.00,Wunderground v.1.15,2013-06-25 06:10:00,
2013-06-25 02:15:00,68.7,63.7,30.17,SSW,196,4.0,4.0,84,0.00,,,0.00,Wunderground v.1.15,2013-06-25 06:15:00,
2013-06-25 02:20:00,68.6,63.6,30.17,SSW,196,4.0,4.0,84,0.00,,,0.00,Wunderground v.1.15,2013-06-25 06:20:00,
2013-06-25 02:25:00,68.5,63.8,30.17,SSW,196,3.0,4.0,85,0.00,,,0.00,Wunderground v.1.15,2013-06-25 06:25:00,
2013-06-25 02:30:00,68.3,63.6,30.16,SSW,196,3.0,3.0,85,0.00,,,0.00,Wunderground v.1.15,2013-06-25 06:30:00,
2013-06-25 02:35:00,68.1,63.4,30.16,SSW,196,3.0,3.0,85,0.00,,,0.00,Wunderground v.1.15,2013-06-25 06:35:00,
2013-06-25 02:40:00,67.9,63.6,30.16,SSW,196,2.0,2.0,86,0.00,,,0.00,Wunderground v.1.15,2013-06-25 06:40:00,
2013-06-25 02:45:00,67.6,63.3,30.16,SSW,196,1.0,2.0,86,0.00,,,0.00,Wunderground v.1.15,2013-06-25 06:45:00,
2013-06-25 02:50:00,67.4,63.4,30.16,SSW,196,2.0,3.0,87,0.00,,,0.00,Wunderground v.1.15,2013-06-25 06:50:00,
2013-06-25 02:55:00,67.2,63.2,30.16,SSW,196,2.0,3.0,87,0.00,,,0.00,Wunderground v.1.15,2013-06-25 06:55:00,
2013-06-25 03:05:00,66.9,63.2,30.16,SSW,196,2.0,3.0,88,0.00,,,0.00,Wunderground v.1.15,2013-06-25 07:05:00,
2013-06-25 03:10:00,66.8,63.1,30.15,SSW,196,2.0,2.0,88,0.00,,,0.00,Wunderground v.1.15,2013-06-25 07:10:00,
2013-06-25 03:15:00,66.8,63.5,30.15,SSW,196,2.0,2.0,89,0.00,,,0.00,Wunderground v.1.15,2013-06-25 07:15:00,
2013-06-25 03:20:00,67.1,63.7,30.15,SSW,196,2.0,2.0,89,0.00,,,0.00,Wunderground v.1.15,2013-06-25 07:20:00,
2013-06-25 03:25:00,67.5,63.8,30.15,SSW,196,3.0,4.0,88,0.00,,,0.00,Wunderground v.1.15,2013-06-25 07:25:00,
2013-06-25 03:35:00,67.7,63.7,30.14,SSW,196,3.0,4.0,87,0.00,,,0.00,Wunderground v.1.15,2013-06-25 07:35:00,
2013-06-25 03:40:00,67.8,63.8,30.14,SSW,196,3.0,3.0,87,0.00,,,0.00,Wunderground v.1.15,2013-06-25 07:40:00,
2013-06-25 03:45:00,68.0,64.0,30.14,SSW,195,3.0,3.0,87,0.00,,,0.00,Wunderground v.1.15,2013-06-25 07:45:00,
2013-06-25 03:50:00,68.3,63.9,30.13,South,190,3.0,4.0,86,0.00,,,0.00,Wunderground v.1.15,2013-06-25 07:50:00,
2013-06-25 03:55:00,68.4,64.0,30.13,South,189,3.0,4.0,86,0.00,,,0.00,Wunderground v.1.15,2013-06-25 07:55:00,
2013-06-25 04:00:00,68.2,63.9,30.14,South,189,4.0,4.0,86,0.00,,,0.00,Wunderground v.1.15,2013-06-25 08:00:00,
2013-06-25 04:10:00,67.7,63.4,30.13,South,189,3.0,3.0,86,0.00,,,0.00,Wunderground v.1.15,2013-06-25 08:10:00,
2013-06-25 04:15:00,67.4,63.4,30.13,South,189,3.0,3.0,87,0.00,,,0.00,Wunderground v.1.15,2013-06-25 08:15:00,
2013-06-25 04:20:00,67.1,63.1,30.13,South,189,2.0,2.0,87,0.00,,,0.00,Wunderground v.1.15,2013-06-25 08:20:00,
2013-06-25 04:25:00,66.8,63.1,30.13,South,189,2.0,2.0,88,0.00,,,0.00,Wunderground v.1.15,2013-06-25 08:25:00,
2013-06-25 04:30:00,66.6,62.9,30.14,South,189,2.0,3.0,88,0.00,,,0.00,Wunderground v.1.15,2013-06-25 08:30:00,
2013-06-25 04:40:00,66.3,63.0,30.14,South,189,2.0,2.0,89,0.00,,,0.00,Wunderground v.1.15,2013-06-25 08:40:00,
2013-06-25 04:45:00,66.2,63.2,30.14,South,189,2.0,3.0,90,0.00,,,0.00,Wunderground v.1.15,2013-06-25 08:45:00,
2013-06-25 04:50:00,66.1,63.1,30.14,South,189,2.0,2.0,90,0.00,,,0.00,Wunderground v.1.15,2013-06-25 08:50:00,
2013-06-25 04:55:00,65.9,62.9,30.14,South,189,3.0,3.0,90,0.00,,,0.00,Wunderground v.1.15,2013-06-25 08:55:00,
2013-06-25 05:00:00,65.8,62.8,30.14,South,189,2.0,2.0,90,0.00,,,0.00,Wunderground v.1.15,2013-06-25 09:00:00,
2013-06-25 05:05:00,65.8,63.1,30.14,South,189,1.0,2.0,91,0.00,,,0.00,Wunderground v.1.15,2013-06-25 09:05:00,
2013-06-25 05:15:00,65.7,63.0,30.14,South,189,1.0,2.0,91,0.00,,,0.00,Wunderground v.1.15,2013-06-25 09:15:00,
2013-06-25 05:20:00,65.6,62.9,30.13,South,189,1.0,1.0,91,0.00,,,0.00,Wunderground v.1.15,2013-06-25 09:20:00,
2013-06-25 05:25:00,65.9,63.5,30.13,South,189,1.0,1.0,92,0.00,,,0.00,Wunderground v.1.15,2013-06-25 09:25:00,
2013-06-25 05:30:00,66.2,63.5,30.13,South,189,1.0,2.0,91,0.00,,,0.00,Wunderground v.1.15,2013-06-25 09:30:00,
2013-06-25 05:35:00,66.7,63.7,30.13,South,189,1.0,2.0,90,0.00,,,0.00,Wunderground v.1.15,2013-06-25 09:35:00,
2013-06-25 05:45:00,67.3,63.9,30.13,South,189,3.0,3.0,89,0.00,,,0.00,Wunderground v.1.15,2013-06-25 09:45:00,
2013-06-25 05:50:00,67.4,64.0,30.13,South,180,3.0,3.0,89,0.00,,,0.00,Wunderground v.1.15,2013-06-25 09:50:00,
2013-06-25 05:55:00,67.4,63.7,30.13,South,180,3.0,6.0,88,0.00,,,0.00,Wunderground v.1.15,2013-06-25 09:55:00,
2013-06-25 06:00:00,67.5,64.1,30.13,South,178,4.0,6.0,89,0.00,,,0.00,Wunderground v.1.15,2013-06-25 10:00:00,
2013-06-25 06:10:00,67.4,63.7,30.13,South,178,4.0,4.0,88,0.00,,,0.00,Wunderground v.1.15,2013-06-25 10:10:00,
2013-06-25 06:20:00,67.0,64.0,30.13,South,178,2.0,3.0,90,0.00,,,0.00,Wunderground v.1.15,2013-06-25 10:20:00,
2013-06-25 06:25:00,67.0,64.0,30.13,South,178,2.0,3.0,90,0.00,,,0.00,Wunderground v.1.15,2013-06-25 10:25:00,
2013-06-25 06:30:00,67.2,64.5,30.13,South,191,3.0,3.0,91,0.00,,,0.00,Wunderground v.1.15,2013-06-25 10:30:00,
2013-06-25 06:35:00,67.8,64.8,30.13,SSW,196,4.0,4.0,90,0.00,,,0.00,Wunderground v.1.15,2013-06-25 10:35:00,
2013-06-25 06:40:00,68.6,65.2,30.13,SSW,196,4.0,4.0,89,0.00,,,0.00,Wunderground v.1.15,2013-06-25 10:40:00,
2013-06-25 06:50:00,69.4,65.4,30.13,SSW,196,3.0,5.0,87,0.00,,,0.00,Wunderground v.1.15,2013-06-25 10:50:00,
2013-06-25 06:55:00,69.8,65.8,30.13,SSW,196,3.0,5.0,87,0.00,,,0.00,Wunderground v.1.15,2013-06-25 10:55:00,
2013-06-25 07:00:00,70.3,66.2,30.13,SSW,196,3.0,4.0,87,0.00,,,0.00,Wunderground v.1.15,2013-06-25 11:00:00,
2013-06-25 07:05:00,70.8,66.4,30.13,SSW,196,4.0,6.0,86,0.00,,,0.00,Wunderground v.1.15,2013-06-25 11:05:00,
2013-06-25 07:10:00,71.3,66.6,30.13,SSW,200,4.0,6.0,85,0.00,,,0.00,Wunderground v.1.15,2013-06-25 11:10:00,
2013-06-25 07:15:00,71.9,66.8,30.13,SSW,202,4.0,6.0,84,0.00,,,0.00,Wunderground v.1.15,2013-06-25 11:15:00,
2013-06-25 07:25:00,73.1,67.3,30.13,SSW,213,4.0,6.0,82,0.00,,,0.00,Wunderground v.1.15,2013-06-25 11:25:00,
2013-06-25 07:30:00,73.6,67.4,30.13,SW,221,4.0,6.0,81,0.00,,,0.00,Wunderground v.1.15,2013-06-25 11:30:00,
2013-06-25 07:35:00,74.2,67.6,30.13,SSW,205,4.0,6.0,80,0.00,,,0.00,Wunderground v.1.15,2013-06-25 11:35:00,
2013-06-25 07:40:00,75.0,68.0,30.13,SSW,197,5.0,5.0,79,0.00,,,0.00,Wunderground v.1.15,2013-06-25 11:40:00,
2013-06-25 07:45:00,75.4,68.1,30.13,SSW,210,4.0,6.0,78,0.00,,,0.00,Wunderground v.1.15,2013-06-25 11:45:00,
2013-06-25 07:55:00,76.4,68.7,30.13,South,185,4.0,6.0,77,0.00,,,0.00,Wunderground v.1.15,2013-06-25 11:55:00,
2013-06-25 08:00:00,76.5,68.4,30.13,SW,216,5.0,7.0,76,0.00,,,0.00,Wunderground v.1.15,2013-06-25 12:00:00,
2013-06-25 08:05:00,76.2,68.5,30.13,SW,215,5.0,7.0,77,0.00,,,0.00,Wunderground v.1.15,2013-06-25 12:05:00,
2013-06-25 08:10:00,75.8,68.1,30.13,SSW,197,5.0,6.0,77,0.00,,,0.00,Wunderground v.1.15,2013-06-25 12:10:00,
2013-06-25 08:15:00,75.6,68.3,30.13,SSW,203,5.0,6.0,78,0.00,,,0.00,Wunderground v.1.15,2013-06-25 12:15:00,
2013-06-25 08:20:00,75.5,68.2,30.13,SW,221,5.0,5.0,78,0.00,,,0.00,Wunderground v.1.15,2013-06-25 12:20:00,
2013-06-25 08:25:00,75.3,68.3,30.13,SSW,200,5.0,6.0,79,0.00,,,0.00,Wunderground v.1.15,2013-06-25 12:25:00,
2013-06-25 08:30:00,75.3,68.3,30.13,SSW,199,5.0,6.0,79,0.00,,,0.00,Wunderground v.1.15,2013-06-25 12:30:00,
2013-06-25 08:40:00,75.2,68.6,30.13,SSW,200,3.0,6.0,80,0.00,,,0.00,Wunderground v.1.15,2013-06-25 12:40:00,
2013-06-25 08:45:00,75.1,68.5,30.13,SSW,200,4.0,6.0,80,0.00,,,0.00,Wunderground v.1.15,2013-06-25 12:45:00,
2013-06-25 08:50:00,75.1,68.9,30.13,SSW,201,4.0,7.0,81,0.00,,,0.00,Wunderground v.1.15,2013-06-25 12:50:00,
2013-06-25 08:55:00,75.1,68.5,30.13,SSW,209,4.0,7.0,80,0.00,,,0.00,Wunderground v.1.15,2013-06-25 12:55:00,
2013-06-25 09:00:00,75.1,68.9,30.13,SSW,197,5.0,6.0,81,0.00,,,0.00,Wunderground v.1.15,2013-06-25 13:00:00,
2013-06-25 09:05:00,75.2,68.6,30.13,SSW,207,5.0,7.0,80,0.00,,,0.00,Wunderground v.1.15,2013-06-25 13:05:00,
2013-06-25 09:10:00,75.3,68.7,30.13,SSW,205,6.0,7.0,80,0.00,,,0.00,Wunderground v.1.15,2013-06-25 13:10:00,
2013-06-25 09:15:00,75.5,68.9,30.13,SSW,196,6.0,7.0,80,0.00,,,0.00,Wunderground v.1.15,2013-06-25 13:15:00,
2013-06-25 09:20:00,75.6,69.0,30.13,SSW,208,5.0,6.0,80,0.00,,,0.00,Wunderground v.1.15,2013-06-25 13:20:00,
2013-06-25 09:30:00,75.4,68.8,30.12,SSW,213,6.0,6.0,80,0.00,,,0.00,Wunderground v.1.15,2013-06-25 13:30:00,
2013-06-25 09:35:00,75.5,68.9,30.12,SSW,207,6.0,7.0,80,0.00,,,0.00,Wunderground v.1.15,2013-06-25 13:35:00,
2013-06-25 09:40:00,75.7,69.5,30.12,SSW,202,5.0,6.0,81,0.00,,,0.00,Wunderground v.1.15,2013-06-25 13:40:00,
2013-06-25 09:45:00,75.9,69.3,30.12,SSW,192,5.0,6.0,80,0.00,,,0.00,Wunderground v.1.15,2013-06-25 13:45:00,
2013-06-25 09:50:00,76.3,69.3,30.12,SSW,209,5.0,6.0,79,0.00,,,0.00,Wunderground v.1.15,2013-06-25 13:50:00,
2013-06-25 09:55:00,76.4,69.4,30.12,SW,214,5.0,6.0,79,0.00,,,0.00,Wunderground v.1.15,2013-06-25 13:55:00,
2013-06-25 10:00:00,76.5,69.9,30.12,SSW,205,5.0,6.0,80,0.00,,,0.00,Wunderground v.1.15,2013-06-25 14:00:00,
2013-06-25 10:05:00,76.2,69.6,30.13,SSW,204,5.0,6.0,80,0.00,,,0.00,Wunderground v.1.15,2013-06-25 14:05:00,
2013-06-25 10:10:00,76.2,69.2,30.12,SSW,204,5.0,6.0,79,0.00,,,0.00,Wunderground v.1.15,2013-06-25 14:10:00,
2013-06-25 10:15:00,76.3,69.7,30.13,SW,226,5.0,6.0,80,0.00,,,0.00,Wunderground v.1.15,2013-06-25 14:15:00,
2013-06-25 10:20:00,76.4,69.4,30.13,SW,230,6.0,7.0,79,0.00,,,0.00,Wunderground v.1.15,2013-06-25 14:20:00,
2013-06-25 10:25:00,76.6,70.0,30.12,SSW,205,6.0,7.0,80,0.00,,,0.00,Wunderground v.1.15,2013-06-25 14:25:00,
2013-06-25 10:30:00,77.0,70.0,30.12,SSW,209,5.0,8.0,79,0.00,,,0.00,Wunderground v.1.15,2013-06-25 14:30:00,
2013-06-25 10:35:00,77.8,70.0,30.12,SSW,213,6.0,8.0,77,0.00,,,0.00,Wunderground v.1.15,2013-06-25 14:35:00,
2013-06-25 10:40:00,78.4,70.2,30.12,WSW,252,7.0,7.0,76,0.00,,,0.00,Wunderground v.1.15,2013-06-25 14:40:00,
2013-06-25 10:45:00,78.5,69.9,30.13,WSW,248,7.0,9.0,75,0.00,,,0.00,Wunderground v.1.15,2013-06-25 14:45:00,
2013-06-25 10:50:00,78.0,69.8,30.13,WSW,238,8.0,8.0,76,0.00,,,0.00,Wunderground v.1.15,2013-06-25 14:50:00,
2013-06-25 10:55:00,77.5,69.3,30.13,West,259,8.0,8.0,76,0.00,,,0.00,Wunderground v.1.15,2013-06-25 14:55:00,
2013-06-25 11:00:00,77.0,69.2,30.12,West,266,8.0,8.0,77,0.00,,,0.00,Wunderground v.1.15,2013-06-25 15:00:00,
2013-06-25 11:10:00,77.1,69.3,30.12,WSW,242,7.0,11.0,77,0.00,,,0.00,Wunderground v.1.15,2013-06-25 15:10:00,
2013-06-25 11:15:00,77.5,69.3,30.12,WSW,246,7.0,11.0,76,0.00,,,0.00,Wunderground v.1.15,2013-06-25 15:15:00,
2013-06-25 11:20:00,77.9,69.3,30.12,WSW,240,8.0,8.0,75,0.00,,,0.00,Wunderground v.1.15,2013-06-25 15:20:00,
2013-06-25 11:25:00,79.1,70.5,30.12,WSW,253,7.0,9.0,75,0.00,,,0.00,Wunderground v.1.15,2013-06-25 15:25:00,
2013-06-25 11:30:00,79.4,70.4,30.11,WNW,282,6.0,6.0,74,0.00,,,0.00,Wunderground v.1.15,2013-06-25 15:30:00,
2013-06-25 11:40:00,79.9,68.8,30.11,WSW,246,7.0,9.0,69,0.00,,,0.00,Wunderground v.1.15,2013-06-25 15:40:00,
2013-06-25 11:45:00,79.4,68.3,30.11,SW,234,8.0,9.0,69,0.00,,,0.00,Wunderground v.1.15,2013-06-25 15:45:00,
2013-06-25 11:50:00,78.9,67.9,30.11,WSW,238,9.0,9.0,69,0.00,,,0.00,Wunderground v.1.15,2013-06-25 15:50:00,
2013-06-25 11:55:00,78.7,68.5,30.10,WSW,256,9.0,9.0,71,0.00,,,0.00,Wunderground v.1.15,2013-06-25 15:55:00,
2013-06-25 12:00:00,78.5,67.9,30.10,WSW,238,9.0,11.0,70,0.00,,,0.00,Wunderground v.1.15,2013-06-25 16:00:00,
2013-06-25 12:10:00,78.2,67.6,30.10,SW,229,9.0,14.0,70,0.00,,,0.00,Wunderground v.1.15,2013-06-25 16:10:00,
2013-06-25 12:15:00,77.8,67.2,30.10,WNW,283,9.0,14.0,70,0.00,,,0.00,Wunderground v.1.15,2013-06-25 16:15:00,
2013-06-25 12:20:00,78.1,67.5,30.10,WSW,257,10.0,10.0,70,0.00,,,0.00,Wunderground v.1.15,2013-06-25 16:20:00,
2013-06-25 12:25:00,79.5,69.7,30.10,WSW,255,9.0,10.0,72,0.00,,,0.00,Wunderground v.1.15,2013-06-25 16:25:00,
2013-06-25 12:30:00,79.5,68.0,30.10,WSW,256,8.0,11.0,68,0.00,,,0.00,Wunderground v.1.15,2013-06-25 16:30:00,
2013-06-25 12:35:00,78.3,66.0,30.10,SW,228,9.0,12.0,66,0.00,,,0.00,Wunderground v.1.15,2013-06-25 16:35:00,
2013-06-25 12:45:00,77.0,65.2,30.10,WSW,250,12.0,12.0,67,0.00,,,0.00,Wunderground v.1.15,2013-06-25 16:45:00,
2013-06-25 12:50:00,76.8,65.9,30.09,West,269,12.0,13.0,69,0.00,,,0.00,Wunderground v.1.15,2013-06-25 16:50:00,
2013-06-25 12:55:00,77.2,66.2,30.09,WSW,250,11.0,13.0,69,0.00,,,0.00,Wunderground v.1.15,2013-06-25 16:55:00,
2013-06-25 13:00:00,78.2,66.8,30.09,SW,224,9.0,12.0,68,0.00,,,0.00,Wunderground v.1.15,2013-06-25 17:00:00,
2013-06-25 13:05:00,78.7,67.2,30.09,West,261,9.0,18.0,68,0.00,,,0.00,Wunderground v.1.15,2013-06-25 17:05:00,
2013-06-25 13:10:00,79.4,67.9,30.09,SW,229,9.0,18.0,68,0.00,,,0.00,Wunderground v.1.15,2013-06-25 17:10:00,
2013-06-25 13:20:00,80.0,68.5,30.08,West,277,8.0,8.0,68,0.00,,,0.00,Wunderground v.1.15,2013-06-25 17:20:00,
2013-06-25 13:25:00,80.1,67.7,30.08,WSW,246,7.0,18.0,66,0.00,,,0.00,Wunderground v.1.15,2013-06-25 17:25:00,
2013-06-25 13:30:00,80.9,68.0,30.08,SW,222,9.0,18.0,65,0.00,,,0.00,Wunderground v.1.15,2013-06-25 17:30:00,
2013-06-25 13:35:00,81.0,67.2,30.08,WSW,246,10.0,18.0,63,0.00,,,0.00,Wunderground v.1.15,2013-06-25 17:35:00,
2013-06-25 13:40:00,80.5,66.7,30.08,WNW,286,11.0,11.0,63,0.00,,,0.00,Wunderground v.1.15,2013-06-25 17:40:00,
2013-06-25 13:50:00,80.2,66.9,30.08,WNW,288,9.0,9.0,64,0.00,,,0.00,Wunderground v.1.15,2013-06-25 17:50:00,
2013-06-25 13:55:00,79.9,67.5,30.08,WNW,284,8.0,18.0,66,0.00,,,0.00,Wunderground v.1.15,2013-06-25 17:55:00,
2013-06-25 14:00:00,79.6,67.2,30.08,West,279,7.0,7.0,66,0.00,,,0.00,Wunderground v.1.15,2013-06-25 18:00:00,
2013-06-25 14:05:00,79.8,68.3,30.08,NNW,335,6.0,8.0,68,0.00,,,0.00,Wunderground v.1.15,2013-06-25 18:05:00,
2013-06-25 14:10:00,80.3,67.9,30.08,West,270,6.0,18.0,66,0.00,,,0.00,Wunderground v.1.15,2013-06-25 18:10:00,
2013-06-25 14:15:00,79.9,66.6,30.08,WNW,298,8.0,18.0,64,0.00,,,0.00,Wunderground v.1.15,2013-06-25 18:15:00,
2013-06-25 14:25:00,79.3,66.1,30.08,WSW,241,8.0,18.0,64,0.00,,,0.00,Wunderground v.1.15,2013-06-25 18:25:00,
2013-06-25 14:30:00,79.1,67.2,30.08,West,266,9.0,9.0,67,0.00,,,0.00,Wunderground v.1.15,2013-06-25 18:30:00,
2013-06-25 14:35:00,79.0,67.1,30.08,WNW,288,8.0,18.0,67,0.00,,,0.00,Wunderground v.1.15,2013-06-25 18:35:00,
2013-06-25 14:40:00,80.2,68.2,30.08,West,260,7.0,18.0,67,0.00,,,0.00,Wunderground v.1.15,2013-06-25 18:40:00,
2013-06-25 14:45:00,80.7,67.4,30.08,WSW,245,8.0,18.0,64,0.00,,,0.00,Wunderground v.1.15,2013-06-25 18:45:00,
2013-06-25 14:55:00,80.5,68.1,30.08,WNW,290,9.0,18.0,66,0.00,,,0.00,Wunderground v.1.15,2013-06-25 18:55:00,
2013-06-25 15:00:00,80.4,68.4,30.08,WNW,283,8.0,8.0,67,0.00,,,0.00,Wunderground v.1.15,2013-06-25 19:00:00,
2013-06-25 15:05:00,80.6,68.6,30.08,WNW,294,7.0,18.0,67,0.00,,,0.00,Wunderground v.1.15,2013-06-25 19:05:00,
2013-06-25 15:10:00,80.4,68.0,30.08,WSW,239,8.0,18.0,66,0.00,,,0.00,Wunderground v.1.15,2013-06-25 19:10:00,
2013-06-25 15:15:00,80.5,68.1,30.08,WSW,249,8.0,18.0,66,0.00,,,0.00,Wunderground v.1.15,2013-06-25 19:15:00,
2013-06-25 15:20:00,80.8,68.4,30.08,WSW,242,8.0,18.0,66,0.00,,,0.00,Wunderground v.1.15,2013-06-25 19:20:00,
2013-06-25 15:30:00,81.7,68.8,30.07,WNW,298,7.0,18.0,65,0.00,,,0.00,Wunderground v.1.15,2013-06-25 19:30:00,
2013-06-25 15:35:00,80.9,68.9,30.07,WNW,300,7.0,18.0,67,0.00,,,0.00,Wunderground v.1.15,2013-06-25 19:35:00,
2013-06-25 15:40:00,80.4,68.9,30.08,WSW,239,6.0,18.0,68,0.00,,,0.00,Wunderground v.1.15,2013-06-25 19:40:00,
2013-06-25 15:45:00,80.6,68.6,30.07,NW,304,7.0,18.0,67,0.00,,,0.00,Wunderground v.1.15,2013-06-25 19:45:00,
2013-06-25 15:50:00,81.4,68.9,30.07,WNW,292,8.0,18.0,66,0.00,,,0.00,Wunderground v.1.15,2013-06-25 19:50:00,
2013-06-25 15:55:00,82.1,70.5,30.07,West,271,7.0,18.0,68,0.00,,,0.00,Wunderground v.1.15,2013-06-25 19:55:00,
2013-06-25 16:00:00,82.0,69.5,30.07,WSW,246,7.0,7.0,66,0.00,,,0.00,Wunderground v.1.15,2013-06-25 20:00:00,
2013-06-25 16:05:00,82.4,70.3,30.07,WNW,298,6.0,18.0,67,0.00,,,0.00,Wunderground v.1.15,2013-06-25 20:05:00,
2013-06-25 16:10:00,82.7,69.7,30.07,West,259,6.0,18.0,65,0.00,,,0.00,Wunderground v.1.15,2013-06-25 20:10:00,
2013-06-25 16:15:00,83.0,70.0,30.07,WSW,251,7.0,18.0,65,0.00,,,0.00,Wunderground v.1.15,2013-06-25 20:15:00,
2013-06-25 16:20:00,82.9,69.9,30.06,SW,230,6.0,6.0,65,0.00,,,0.00,Wunderground v.1.15,2013-06-25 20:20:00,
2013-06-25 16:30:00,82.5,69.5,30.06,WSW,253,8.0,8.0,65,0.00,,,0.00,Wunderground v.1.15,2013-06-25 20:30:00,
2013-06-25 16:35:00,82.1,69.2,30.06,SW,222,8.0,9.0,65,0.00,,,0.00,Wunderground v.1.15,2013-06-25 20:35:00,
2013-06-25 16:40:00,81.9,70.3,30.06,WSW,250,8.0,8.0,68,0.00,,,0.00,Wunderground v.1.15,2013-06-25 20:40:00,
2013-06-25 16:45:00,82.4,70.3,30.06,West,281,8.0,18.0,67,0.00,,,0.00,Wunderground v.1.15,2013-06-25 20:45:00,
2013-06-25 16:50:00,82.4,69.9,30.06,WNW,286,6.0,18.0,66,0.00,,,0.00,Wunderground v.1.15,2013-06-25 20:50:00,
2013-06-25 16:55:00,82.4,69.4,30.05,WSW,252,6.0,18.0,65,0.00,,,0.00,Wunderground v.1.15,2013-06-25 20:55:00,
2013-06-25 17:05:00,83.0,69.6,30.05,West,274,6.0,18.0,64,0.00,,,0.00,Wunderground v.1.15,2013-06-25 21:05:00,
2013-06-25 17:10:00,82.8,69.4,30.05,West,281,7.0,18.0,64,0.00,,,0.00,Wunderground v.1.15,2013-06-25 21:10:00,
2013-06-25 17:15:00,82.7,69.3,30.05,WSW,248,7.0,18.0,64,0.00,,,0.00,Wunderground v.1.15,2013-06-25 21:15:00,
2013-06-25 17:20:00,82.7,68.8,30.05,SW,229,7.0,18.0,63,0.00,,,0.00,Wunderground v.1.15,2013-06-25 21:20:00,
2013-06-25 17:25:00,82.6,69.6,30.04,SW,231,8.0,18.0,65,0.00,,,0.00,Wunderground v.1.15,2013-06-25 21:25:00,
2013-06-25 17:35:00,82.5,70.0,30.04,West,263,8.0,18.0,66,0.00,,,0.00,Wunderground v.1.15,2013-06-25 21:35:00,
2013-06-25 17:40:00,82.8,70.3,30.03,WNW,297,8.0,8.0,66,0.00,,,0.00,Wunderground v.1.15,2013-06-25 21:40:00,
2013-06-25 17:45:00,82.8,70.3,30.03,WSW,254,7.0,18.0,66,0.00,,,0.00,Wunderground v.1.15,2013-06-25 21:45:00,
2013-06-25 17:50:00,82.7,68.8,30.03,SW,227,8.0,8.0,63,0.00,,,0.00,Wunderground v.1.15,2013-06-25 21:50:00,
2013-06-25 17:55:00,82.6,69.2,30.03,West,265,8.0,18.0,64,0.00,,,0.00,Wunderground v.1.15,2013-06-25 21:55:00,
2013-06-25 18:00:00,82.7,69.3,30.03,SW,234,7.0,9.0,64,0.00,,,0.00,Wunderground v.1.15,2013-06-25 22:00:00,
2013-06-25 18:10:00,81.4,68.1,30.02,West,269,6.0,6.0,64,0.00,,,0.00,Wunderground v.1.15,2013-06-25 22:10:00,
2013-06-25 18:15:00,81.0,67.7,30.02,West,275,7.0,7.0,64,0.00,,,0.00,Wunderground v.1.15,2013-06-25 22:15:00,
2013-06-25 18:20:00,80.6,67.7,30.02,WSW,248,7.0,7.0,65,0.00,,,0.00,Wunderground v.1.15,2013-06-25 22:20:00,
2013-06-25 18:25:00,80.4,67.6,30.02,WSW,240,7.0,9.0,65,0.00,,,0.00,Wunderground v.1.15,2013-06-25 22:25:00,
2013-06-25 18:30:00,80.5,68.1,30.02,SW,233,7.0,7.0,66,0.00,,,0.00,Wunderground v.1.15,2013-06-25 22:30:00,
2013-06-25 18:40:00,80.4,68.4,30.02,West,281,6.0,6.0,67,0.00,,,0.00,Wunderground v.1.15,2013-06-25 22:40:00,
2013-06-25 18:45:00,80.6,68.2,30.02,West,268,7.0,7.0,66,0.00,,,0.00,Wunderground v.1.15,2013-06-25 22:45:00,
2013-06-25 18:50:00,80.8,67.9,30.02,WSW,246,7.0,7.0,65,0.00,,,0.00,Wunderground v.1.15,2013-06-25 22:50:00,
2013-06-25 18:55:00,80.6,68.2,30.02,WNW,288,7.0,7.0,66,0.00,,,0.00,Wunderground v.1.15,2013-06-25 22:55:00,
2013-06-25 19:00:00,80.7,68.3,30.02,WSW,246,6.0,6.0,66,0.00,,,0.00,Wunderground v.1.15,2013-06-25 23:00:00,
2013-06-25 19:05:00,80.8,68.4,30.02,West,281,4.0,18.0,66,0.00,,,0.00,Wunderground v.1.15,2013-06-25 23:05:00,
2013-06-25 19:15:00,80.6,67.7,30.02,West,269,5.0,8.0,65,0.00,,,0.00,Wunderground v.1.15,2013-06-25 23:15:00,
2013-06-25 19:20:00,80.1,67.7,30.02,WSW,252,6.0,6.0,66,0.00,,,0.00,Wunderground v.1.15,2013-06-25 23:20:00,
2013-06-25 19:25:00,79.6,68.1,30.02,WSW,250,5.0,18.0,68,0.00,,,0.00,Wunderground v.1.15,2013-06-25 23:25:00,
2013-06-25 19:30:00,79.3,67.4,30.02,West,273,4.0,18.0,67,0.00,,,0.00,Wunderground v.1.15,2013-06-25 23:30:00,
2013-06-25 19:35:00,79.3,66.5,30.03,WSW,257,6.0,18.0,65,0.00,,,0.00,Wunderground v.1.15,2013-06-25 23:35:00,
2013-06-25 19:45:00,79.0,65.8,30.03,SW,234,8.0,18.0,64,0.00,,,0.00,Wunderground v.1.15,2013-06-25 23:45:00,
2013-06-25 19:50:00,78.9,65.2,30.03,SW,223,7.0,18.0,63,0.00,,,0.00,Wunderground v.1.15,2013-06-25 23:50:00,
2013-06-25 19:55:00,78.6,65.4,30.03,WNW,282,6.0,18.0,64,0.00,,,0.00,Wunderground v.1.15,2013-06-25 23:55:00,
2013-06-25 20:00:00,78.3,65.6,30.03,West,277,5.0,5.0,65,0.00,,,0.00,Wunderground v.1.15,2013-06-26 00:00:00,
2013-06-25 20:05:00,78.1,65.4,30.03,West,260,5.0,10.0,65,0.00,,,0.00,Wunderground v.1.15,2013-06-26 00:05:00,
2013-06-25 20:10:00,77.9,65.2,30.04,SW,233,6.0,6.0,65,0.00,,,0.00,Wunderground v.1.15,2013-06-26 00:10:00,
2013-06-25 20:20:00,77.5,65.2,30.03,WSW,257,5.0,18.0,66,0.00,,,0.00,Wunderground v.1.15,2013-06-26 00:20:00,
2013-06-25 20:25:00,77.4,64.7,30.03,West,269,5.0,18.0,65,0.00,,,0.00,Wunderground v.1.15,2013-06-26 00:25:00,
2013-06-25 20:30:00,77.2,65.0,30.03,SW,232,6.0,18.0,66,0.00,,,0.00,Wunderground v.1.15,2013-06-26 00:30:00,
2013-06-25 20:35:00,76.9,64.7,30.03,WSW,255,5.0,18.0,66,0.00,,,0.00,Wunderground v.1.15,2013-06-26 00:35:00,
2013-06-25 20:40:00,76.7,64.5,30.03,West,264,5.0,18.0,66,0.00,,,0.00,Wunderground v.1.15,2013-06-26 00:40:00,
2013-06-25 20:50:00,76.2,64.4,30.03,West,266,4.0,18.0,67,0.00,,,0.00,Wunderground v.1.15,2013-06-26 00:50:00,
2013-06-25 20:55:00,76.1,63.9,30.03,WSW,250,5.0,18.0,66,0.00,,,0.00,Wunderground v.1.15,2013-06-26 00:55:00,
2013-06-25 21:00:00,76.0,64.2,30.03,WSW,252,5.0,5.0,67,0.00,,,0.00,Wunderground v.1.15,2013-06-26 01:00:00,
2013-06-25 21:05:00,75.8,64.1,30.04,West,265,4.0,18.0,67,0.00,,,0.00,Wunderground v.1.15,2013-06-26 01:05:00,
2013-06-25 21:10:00,75.6,64.3,30.04,WSW,250,4.0,4.0,68,0.00,,,0.00,Wunderground v.1.15,2013-06-26 01:10:00,
2013-06-25 21:15:00,75.4,64.5,30.04,WSW,250,4.0,18.0,69,0.00,,,0.00,Wunderground v.1.15,2013-06-26 01:15:00,
2013-06-25 21:20:00,75.2,64.3,30.04,WSW,250,3.0,18.0,69,0.00,,,0.00,Wunderground v.1.15,2013-06-26 01:20:00,
2013-06-25 21:25:00,74.9,64.0,30.05,WSW,248,3.0,18.0,69,0.00,,,0.00,Wunderground v.1.15,2013-06-26 01:25:00,
2013-06-25 21:30:00,74.8,63.9,30.05,WSW,254,4.0,18.0,69,0.00,,,0.00,Wunderground v.1.15,2013-06-26 01:30:00,
2013-06-25 21:40:00,74.6,64.2,30.05,WSW,244,4.0,18.0,70,0.00,,,0.00,Wunderground v.1.15,2013-06-26 01:40:00,
2013-06-25 21:45:00,74.3,63.9,30.05,SW,225,5.0,18.0,70,0.00,,,0.00,Wunderground v.1.15,2013-06-26 01:45:00,
2013-06-25 21:50:00,74.4,63.6,30.05,WSW,241,6.0,6.0,69,0.00,,,0.00,Wunderground v.1.15,2013-06-26 01:50:00,
2013-06-25 21:55:00,74.6,63.8,30.05,SW,230,5.0,7.0,69,0.00,,,0.00,Wunderground v.1.15,2013-06-26 01:55:00,
2013-06-25 22:00:00,74.7,63.4,30.06,West,261,5.0,18.0,68,0.00,,,0.00,Wunderground v.1.15,2013-06-26 02:00:00,
2013-06-25 22:05:00,74.8,63.5,30.06,WSW,247,6.0,18.0,68,0.00,,,0.00,Wunderground v.1.15,2013-06-26 02:05:00,
2013-06-25 22:10:00,74.8,63.5,30.06,West,259,6.0,6.0,68,0.00,,,0.00,Wunderground v.1.15,2013-06-26 02:10:00,
2013-06-25 22:15:00,74.8,63.1,30.05,WSW,258,6.0,18.0,67,0.00,,,0.00,Wunderground v.1.15,2013-06-26 02:15:00,
2013-06-25 22:25:00,74.6,62.9,30.05,WSW,254,5.0,18.0,67,0.00,,,0.00,Wunderground v.1.15,2013-06-26 02:25:00,
2013-06-25 22:30:00,74.7,63.0,30.05,WSW,244,6.0,6.0,67,0.00,,,0.00,Wunderground v.1.15,2013-06-26 02:30:00,
2013-06-25 22:35:00,74.8,63.1,30.05,WSW,244,6.0,18.0,67,0.00,,,0.00,Wunderground v.1.15,2013-06-26 02:35:00,
2013-06-25 22:40:00,74.9,62.8,30.05,WSW,257,6.0,6.0,66,0.00,,,0.00,Wunderground v.1.15,2013-06-26 02:40:00,
2013-06-25 22:45:00,74.8,62.7,30.05,SW,236,6.0,9.0,66,0.00,,,0.00,Wunderground v.1.15,2013-06-26 02:45:00,
2013-06-25 22:50:00,74.8,62.2,30.04,WSW,242,6.0,18.0,65,0.00,,,0.00,Wunderground v.1.15,2013-06-26 02:50:00,
2013-06-25 23:00:00,74.7,63.0,30.05,West,259,6.0,18.0,67,0.00,,,0.00,Wunderground v.1.15,2013-06-26 03:00:00,
2013-06-25 23:05:00,74.5,62.8,30.05,West,261,6.0,18.0,67,0.00,,,0.00,Wunderground v.1.15,2013-06-26 03:05:00,
2013-06-25 23:10:00,74.4,63.1,30.05,WSW,257,5.0,18.0,68,0.00,,,0.00,Wunderground v.1.15,2013-06-26 03:10:00,
2013-06-25 23:15:00,74.3,63.5,30.05,WSW,245,5.0,18.0,69,0.00,,,0.00,Wunderground v.1.15,2013-06-26 03:15:00,
2013-06-25 23:20:00,74.2,63.4,30.05,West,273,6.0,18.0,69,0.00,,,0.00,Wunderground v.1.15,2013-06-26 03:20:00,
2013-06-25 23:30:00,74.0,63.6,30.04,West,263,6.0,18.0,70,0.00,,,0.00,Wunderground v.1.15,2013-06-26 03:30:00,
2013-06-25 23:35:00,74.0,63.6,30.05,West,260,6.0,18.0,70,0.00,,,0.00,Wunderground v.1.15,2013-06-26 03:35:00,
2013-06-25 23:40:00,73.9,63.9,30.04,WSW,238,6.0,6.0,71,0.00,,,0.00,Wunderground v.1.15,2013-06-26 03:40:00,
2013-06-25 23:45:00,73.7,64.1,30.04,West,281,5.0,18.0,72,0.00,,,0.00,Wunderground v.1.15,2013-06-26 03:45:00,
2013-06-25 23:50:00,73.5,63.9,30.04,West,269,4.0,18.0,72,0.00,,,0.00,Wunderground v.1.15,2013-06-26 03:50:00,
2013-06-25 23:55:00,73.4,64.2,30.04,West,273,4.0,18.0,73,0.00,,,0.00,Wunderground v.1.15,2013-06-26 03:55:00,